sensor_id;sensor_type;location;lat;lon;timestamp;temperature;humidity
12815;DHT22;6472;52.328;13.070;2023-12-20T00:01:22;6.00;99.90
12815;DHT22;6472;52.328;13.070;2023-12-20T00:03:50;6.10;99.90
12815;DHT22;6472;52.328;13.070;2023-12-20T00:06:18;6.10;99.90
12815;DHT22;6472;52.328;13.070;2023-12-20T00:08:46;6.10;99.90
12815;DHT22;6472;52.328;13.070;2023-12-20T00:11:14;6.10;99.90
12815;DHT22;6472;52.328;13.070;2023-12-20T00:13:43;6.10;99.90
12815;DHT22;6472;52.328;13.070;2023-12-20T00:16:16;6.10;99.90
12815;DHT22;6472;52.328;13.070;2023-12-20T00:18:44;6.10;99.90
12815;DHT22;6472;52.328;13.070;2023-12-20T00:21:13;6.10;99.90
12815;DHT22;6472;52.328;13.070;2023-12-20T00:23:40;6.10;99.90
12815;DHT22;6472;52.328;13.070;2023-12-20T00:26:08;6.00;99.90
12815;DHT22;6472;52.328;13.070;2023-12-20T00:28:36;6.10;99.90
12815;DHT22;6472;52.328;13.070;2023-12-20T00:31:06;6.10;99.90
12815;DHT22;6472;52.328;13.070;2023-12-20T00:33:34;6.10;99.90
12815;DHT22;6472;52.328;13.070;2023-12-20T00:36:02;6.10;99.90
12815;DHT22;6472;52.328;13.070;2023-12-20T00:38:30;6.10;99.90
12815;DHT22;6472;52.328;13.070;2023-12-20T00:40:58;6.10;99.90
12815;DHT22;6472;52.328;13.070;2023-12-20T00:43:26;6.20;99.90
12815;DHT22;6472;52.328;13.070;2023-12-20T00:45:54;6.20;99.90
12815;DHT22;6472;52.328;13.070;2023-12-20T00:48:24;6.20;99.90
12815;DHT22;6472;52.328;13.070;2023-12-20T00:50:53;6.20;99.90
12815;DHT22;6472;52.328;13.070;2023-12-20T00:53:21;6.10;99.90
12815;DHT22;6472;52.328;13.070;2023-12-20T00:55:49;6.10;99.90
12815;DHT22;6472;52.328;13.070;2023-12-20T00:58:17;6.10;99.90
12815;DHT22;6472;52.328;13.070;2023-12-20T01:00:45;6.10;99.90
12815;DHT22;6472;52.328;13.070;2023-12-20T01:03:13;6.20;99.90
12815;DHT22;6472;52.328;13.070;2023-12-20T01:05:43;6.20;99.90
12815;DHT22;6472;52.328;13.070;2023-12-20T01:08:11;6.20;99.90
12815;DHT22;6472;52.328;13.070;2023-12-20T01:10:39;6.20;99.90
12815;DHT22;6472;52.328;13.070;2023-12-20T01:13:08;6.20;99.90
12815;DHT22;6472;52.328;13.070;2023-12-20T01:15:36;6.10;99.90
12815;DHT22;6472;52.328;13.070;2023-12-20T01:18:04;6.10;99.90
12815;DHT22;6472;52.328;13.070;2023-12-20T01:20:32;6.10;99.90
12815;DHT22;6472;52.328;13.070;2023-12-20T01:23:02;6.10;99.90
12815;DHT22;6472;52.328;13.070;2023-12-20T01:25:30;6.20;99.90
12815;DHT22;6472;52.328;13.070;2023-12-20T01:27:58;6.10;99.90
12815;DHT22;6472;52.328;13.070;2023-12-20T01:30:26;6.20;99.90
12815;DHT22;6472;52.328;13.070;2023-12-20T01:32:54;6.20;99.90
12815;DHT22;6472;52.328;13.070;2023-12-20T01:35:22;6.20;99.90
12815;DHT22;6472;52.328;13.070;2023-12-20T01:37:50;6.20;99.90
12815;DHT22;6472;52.328;13.070;2023-12-20T01:40:19;6.20;99.90
12815;DHT22;6472;52.328;13.070;2023-12-20T01:42:47;6.20;99.90
12815;DHT22;6472;52.328;13.070;2023-12-20T01:45:15;6.20;99.90
12815;DHT22;6472;52.328;13.070;2023-12-20T01:47:43;6.20;99.90
12815;DHT22;6472;52.328;13.070;2023-12-20T01:50:11;6.20;99.90
12815;DHT22;6472;52.328;13.070;2023-12-20T01:52:41;6.20;99.90
12815;DHT22;6472;52.328;13.070;2023-12-20T01:55:09;6.20;99.90
12815;DHT22;6472;52.328;13.070;2023-12-20T01:57:42;6.20;99.90
12815;DHT22;6472;52.328;13.070;2023-12-20T02:00:12;6.30;99.90
12815;DHT22;6472;52.328;13.070;2023-12-20T02:02:41;6.20;99.90
12815;DHT22;6472;52.328;13.070;2023-12-20T02:05:10;6.20;99.90
12815;DHT22;6472;52.328;13.070;2023-12-20T02:07:38;6.20;99.90
12815;DHT22;6472;52.328;13.070;2023-12-20T02:10:07;6.30;99.90
12815;DHT22;6472;52.328;13.070;2023-12-20T02:12:35;6.30;99.90
12815;DHT22;6472;52.328;13.070;2023-12-20T02:15:05;6.30;99.90
12815;DHT22;6472;52.328;13.070;2023-12-20T02:17:34;6.20;99.90
12815;DHT22;6472;52.328;13.070;2023-12-20T02:20:02;6.30;99.90
12815;DHT22;6472;52.328;13.070;2023-12-20T02:22:31;6.30;99.90
12815;DHT22;6472;52.328;13.070;2023-12-20T02:24:59;6.30;99.90
12815;DHT22;6472;52.328;13.070;2023-12-20T02:27:28;6.30;99.90
12815;DHT22;6472;52.328;13.070;2023-12-20T02:29:56;6.20;99.90
12815;DHT22;6472;52.328;13.070;2023-12-20T02:32:24;6.30;99.90
12815;DHT22;6472;52.328;13.070;2023-12-20T02:34:54;6.30;99.90
12815;DHT22;6472;52.328;13.070;2023-12-20T02:37:23;6.30;99.90
12815;DHT22;6472;52.328;13.070;2023-12-20T02:39:52;6.30;99.90
12815;DHT22;6472;52.328;13.070;2023-12-20T02:42:20;6.30;99.90
12815;DHT22;6472;52.328;13.070;2023-12-20T02:44:48;6.30;99.90
12815;DHT22;6472;52.328;13.070;2023-12-20T02:47:16;6.30;99.90
12815;DHT22;6472;52.328;13.070;2023-12-20T02:49:44;6.30;99.90
12815;DHT22;6472;52.328;13.070;2023-12-20T02:52:13;6.20;99.90
12815;DHT22;6472;52.328;13.070;2023-12-20T02:54:41;6.30;99.90
12815;DHT22;6472;52.328;13.070;2023-12-20T02:57:10;6.30;99.90
12815;DHT22;6472;52.328;13.070;2023-12-20T02:59:38;6.30;99.90
12815;DHT22;6472;52.328;13.070;2023-12-20T03:02:06;6.30;99.90
12815;DHT22;6472;52.328;13.070;2023-12-20T03:04:34;6.30;99.90
12815;DHT22;6472;52.328;13.070;2023-12-20T03:07:02;6.30;99.90
12815;DHT22;6472;52.328;13.070;2023-12-20T03:09:30;6.20;99.90
12815;DHT22;6472;52.328;13.070;2023-12-20T03:12:19;6.20;99.90
12815;DHT22;6472;52.328;13.070;2023-12-20T03:14:48;6.20;99.90
12815;DHT22;6472;52.328;13.070;2023-12-20T03:17:16;6.20;99.90
12815;DHT22;6472;52.328;13.070;2023-12-20T03:19:45;6.10;99.90
12815;DHT22;6472;52.328;13.070;2023-12-20T03:22:13;6.20;99.90
12815;DHT22;6472;52.328;13.070;2023-12-20T03:24:41;6.30;99.90
12815;DHT22;6472;52.328;13.070;2023-12-20T03:27:09;6.20;99.90
12815;DHT22;6472;52.328;13.070;2023-12-20T03:29:38;6.20;99.90
12815;DHT22;6472;52.328;13.070;2023-12-20T03:32:06;6.20;99.90
12815;DHT22;6472;52.328;13.070;2023-12-20T03:34:35;6.60;99.90
12815;DHT22;6472;52.328;13.070;2023-12-20T03:37:03;6.20;99.90
12815;DHT22;6472;52.328;13.070;2023-12-20T03:39:31;6.40;99.90
12815;DHT22;6472;52.328;13.070;2023-12-20T03:41:59;6.70;99.90
12815;DHT22;6472;52.328;13.070;2023-12-20T03:44:27;6.60;99.90
12815;DHT22;6472;52.328;13.070;2023-12-20T03:46:56;6.10;99.90
12815;DHT22;6472;52.328;13.070;2023-12-20T03:49:24;6.10;99.90
12815;DHT22;6472;52.328;13.070;2023-12-20T03:51:53;6.30;99.90
12815;DHT22;6472;52.328;13.070;2023-12-20T03:54:21;6.10;99.90
12815;DHT22;6472;52.328;13.070;2023-12-20T03:56:49;6.70;99.90
12815;DHT22;6472;52.328;13.070;2023-12-20T03:59:18;6.20;99.90
12815;DHT22;6472;52.328;13.070;2023-12-20T04:01:46;6.20;99.90
12815;DHT22;6472;52.328;13.070;2023-12-20T04:04:16;6.10;99.90
12815;DHT22;6472;52.328;13.070;2023-12-20T04:06:44;5.70;99.90
12815;DHT22;6472;52.328;13.070;2023-12-20T04:09:13;5.10;99.90
12815;DHT22;6472;52.328;13.070;2023-12-20T04:11:41;6.40;99.90
12815;DHT22;6472;52.328;13.070;2023-12-20T04:14:08;5.90;99.90
12815;DHT22;6472;52.328;13.070;2023-12-20T04:16:37;5.80;99.90
12815;DHT22;6472;52.328;13.070;2023-12-20T04:19:05;5.80;99.90
12815;DHT22;6472;52.328;13.070;2023-12-20T04:21:35;5.80;99.90
12815;DHT22;6472;52.328;13.070;2023-12-20T04:24:03;6.10;99.90
12815;DHT22;6472;52.328;13.070;2023-12-20T04:26:31;5.70;99.90
12815;DHT22;6472;52.328;13.070;2023-12-20T04:28:59;5.60;99.90
12815;DHT22;6472;52.328;13.070;2023-12-20T04:31:27;5.60;99.90
12815;DHT22;6472;52.328;13.070;2023-12-20T04:33:55;5.70;99.90
12815;DHT22;6472;52.328;13.070;2023-12-20T04:36:23;5.50;99.90
12815;DHT22;6472;52.328;13.070;2023-12-20T04:38:54;5.50;99.90
12815;DHT22;6472;52.328;13.070;2023-12-20T04:41:22;5.50;99.90
12815;DHT22;6472;52.328;13.070;2023-12-20T04:43:50;5.90;99.90
12815;DHT22;6472;52.328;13.070;2023-12-20T04:46:18;5.40;99.90
12815;DHT22;6472;52.328;13.070;2023-12-20T04:48:46;5.30;99.90
12815;DHT22;6472;52.328;13.070;2023-12-20T04:51:15;5.00;99.90
12815;DHT22;6472;52.328;13.070;2023-12-20T04:53:42;5.20;99.90
12815;DHT22;6472;52.328;13.070;2023-12-20T04:56:12;5.20;99.90
12815;DHT22;6472;52.328;13.070;2023-12-20T04:58:40;5.00;99.90
12815;DHT22;6472;52.328;13.070;2023-12-20T05:01:08;5.00;99.90
12815;DHT22;6472;52.328;13.070;2023-12-20T05:03:37;5.00;99.90
12815;DHT22;6472;52.328;13.070;2023-12-20T05:06:05;5.40;99.90
12815;DHT22;6472;52.328;13.070;2023-12-20T05:08:35;4.80;99.90
12815;DHT22;6472;52.328;13.070;2023-12-20T05:11:03;4.70;99.90
12815;DHT22;6472;52.328;13.070;2023-12-20T05:13:33;4.60;99.90
12815;DHT22;6472;52.328;13.070;2023-12-20T05:16:13;5.20;99.90
12815;DHT22;6472;52.328;13.070;2023-12-20T05:18:45;5.00;99.90
12815;DHT22;6472;52.328;13.070;2023-12-20T05:21:13;5.00;99.90
12815;DHT22;6472;52.328;13.070;2023-12-20T05:23:41;5.00;99.90
12815;DHT22;6472;52.328;13.070;2023-12-20T05:26:09;5.10;99.90
12815;DHT22;6472;52.328;13.070;2023-12-20T05:28:39;5.00;99.90
12815;DHT22;6472;52.328;13.070;2023-12-20T05:31:07;5.00;99.90
12815;DHT22;6472;52.328;13.070;2023-12-20T05:33:35;5.00;99.90
12815;DHT22;6472;52.328;13.070;2023-12-20T05:36:04;5.10;99.90
12815;DHT22;6472;52.328;13.070;2023-12-20T05:38:33;5.10;99.90
12815;DHT22;6472;52.328;13.070;2023-12-20T05:41:01;5.10;99.90
12815;DHT22;6472;52.328;13.070;2023-12-20T05:43:29;5.00;99.90
12815;DHT22;6472;52.328;13.070;2023-12-20T05:46:01;5.10;99.90
12815;DHT22;6472;52.328;13.070;2023-12-20T05:48:30;5.50;99.90
12815;DHT22;6472;52.328;13.070;2023-12-20T05:50:58;5.70;99.90
12815;DHT22;6472;52.328;13.070;2023-12-20T05:53:26;4.40;99.90
12815;DHT22;6472;52.328;13.070;2023-12-20T05:55:54;4.70;99.90
12815;DHT22;6472;52.328;13.070;2023-12-20T05:58:22;4.30;99.90
12815;DHT22;6472;52.328;13.070;2023-12-20T06:00:49;4.60;99.90
12815;DHT22;6472;52.328;13.070;2023-12-20T06:03:18;4.90;99.90
12815;DHT22;6472;52.328;13.070;2023-12-20T06:05:46;4.60;99.90
12815;DHT22;6472;52.328;13.070;2023-12-20T06:08:14;4.40;99.90
12815;DHT22;6472;52.328;13.070;2023-12-20T06:10:42;4.40;99.90
12815;DHT22;6472;52.328;13.070;2023-12-20T06:13:11;4.30;99.90
12815;DHT22;6472;52.328;13.070;2023-12-20T06:15:40;4.20;99.90
12815;DHT22;6472;52.328;13.070;2023-12-20T06:18:08;4.50;99.90
12815;DHT22;6472;52.328;13.070;2023-12-20T06:20:37;4.10;99.90
12815;DHT22;6472;52.328;13.070;2023-12-20T06:23:05;4.10;99.90
12815;DHT22;6472;52.328;13.070;2023-12-20T06:25:33;4.30;99.90
12815;DHT22;6472;52.328;13.070;2023-12-20T06:28:01;4.10;99.90
12815;DHT22;6472;52.328;13.070;2023-12-20T06:30:29;4.20;99.90
12815;DHT22;6472;52.328;13.070;2023-12-20T06:32:59;3.90;99.90
12815;DHT22;6472;52.328;13.070;2023-12-20T06:35:27;4.20;99.90
12815;DHT22;6472;52.328;13.070;2023-12-20T06:37:57;4.10;99.90
12815;DHT22;6472;52.328;13.070;2023-12-20T06:40:25;4.40;99.90
12815;DHT22;6472;52.328;13.070;2023-12-20T06:42:53;4.10;99.90
12815;DHT22;6472;52.328;13.070;2023-12-20T06:45:34;4.10;99.90
12815;DHT22;6472;52.328;13.070;2023-12-20T06:48:03;4.20;99.90
12815;DHT22;6472;52.328;13.070;2023-12-20T06:50:31;4.20;99.90
12815;DHT22;6472;52.328;13.070;2023-12-20T06:53:01;4.80;99.90
12815;DHT22;6472;52.328;13.070;2023-12-20T06:55:34;4.40;99.90
12815;DHT22;6472;52.328;13.070;2023-12-20T06:58:03;4.10;99.90
12815;DHT22;6472;52.328;13.070;2023-12-20T07:00:32;4.20;99.90
12815;DHT22;6472;52.328;13.070;2023-12-20T07:03:00;4.20;99.90
12815;DHT22;6472;52.328;13.070;2023-12-20T07:05:28;4.70;99.90
12815;DHT22;6472;52.328;13.070;2023-12-20T07:07:56;4.30;99.90
12815;DHT22;6472;52.328;13.070;2023-12-20T07:10:26;4.30;99.90
12815;DHT22;6472;52.328;13.070;2023-12-20T07:12:54;4.50;99.90
12815;DHT22;6472;52.328;13.070;2023-12-20T07:15:22;4.40;99.90
12815;DHT22;6472;52.328;13.070;2023-12-20T07:17:51;4.40;99.90
12815;DHT22;6472;52.328;13.070;2023-12-20T07:20:19;4.50;99.90
12815;DHT22;6472;52.328;13.070;2023-12-20T07:22:47;4.50;99.90
12815;DHT22;6472;52.328;13.070;2023-12-20T07:25:16;4.40;99.90
12815;DHT22;6472;52.328;13.070;2023-12-20T07:27:46;4.90;99.90
12815;DHT22;6472;52.328;13.070;2023-12-20T07:30:15;4.50;99.90
12815;DHT22;6472;52.328;13.070;2023-12-20T07:32:43;4.80;99.90
12815;DHT22;6472;52.328;13.070;2023-12-20T07:35:11;4.50;99.90
12815;DHT22;6472;52.328;13.070;2023-12-20T07:37:39;4.40;99.90
12815;DHT22;6472;52.328;13.070;2023-12-20T07:40:08;4.50;99.90
12815;DHT22;6472;52.328;13.070;2023-12-20T07:42:36;4.50;99.90
12815;DHT22;6472;52.328;13.070;2023-12-20T07:45:06;4.50;99.90
12815;DHT22;6472;52.328;13.070;2023-12-20T07:47:34;4.50;99.90
12815;DHT22;6472;52.328;13.070;2023-12-20T07:50:03;4.60;99.90
12815;DHT22;6472;52.328;13.070;2023-12-20T07:52:32;4.70;99.90
12815;DHT22;6472;52.328;13.070;2023-12-20T07:55:00;4.60;99.90
12815;DHT22;6472;52.328;13.070;2023-12-20T07:57:29;4.70;99.90
12815;DHT22;6472;52.328;13.070;2023-12-20T07:59:57;4.70;99.90
12815;DHT22;6472;52.328;13.070;2023-12-20T08:02:27;4.70;99.90
12815;DHT22;6472;52.328;13.070;2023-12-20T08:04:55;4.70;99.90
12815;DHT22;6472;52.328;13.070;2023-12-20T08:07:24;5.10;99.90
12815;DHT22;6472;52.328;13.070;2023-12-20T08:09:52;5.30;99.90
12815;DHT22;6472;52.328;13.070;2023-12-20T08:12:21;4.80;99.90
12815;DHT22;6472;52.328;13.070;2023-12-20T08:14:49;4.80;99.90
12815;DHT22;6472;52.328;13.070;2023-12-20T08:17:17;4.10;99.90
12815;DHT22;6472;52.328;13.070;2023-12-20T08:19:47;4.90;99.90
12815;DHT22;6472;52.328;13.070;2023-12-20T08:22:15;5.40;99.90
12815;DHT22;6472;52.328;13.070;2023-12-20T08:24:44;4.80;99.90
12815;DHT22;6472;52.328;13.070;2023-12-20T08:27:12;4.40;99.90
12815;DHT22;6472;52.328;13.070;2023-12-20T08:29:40;5.50;99.90
12815;DHT22;6472;52.328;13.070;2023-12-20T08:32:08;5.00;99.90
12815;DHT22;6472;52.328;13.070;2023-12-20T08:34:36;5.00;99.90
12815;DHT22;6472;52.328;13.070;2023-12-20T08:37:06;5.00;99.90
12815;DHT22;6472;52.328;13.070;2023-12-20T08:39:34;5.10;99.90
12815;DHT22;6472;52.328;13.070;2023-12-20T08:42:03;5.10;99.90
12815;DHT22;6472;52.328;13.070;2023-12-20T08:44:31;5.10;99.90
12815;DHT22;6472;52.328;13.070;2023-12-20T08:46:59;5.10;99.90
12815;DHT22;6472;52.328;13.070;2023-12-20T08:49:27;5.10;99.90
12815;DHT22;6472;52.328;13.070;2023-12-20T08:51:55;4.90;99.90
12815;DHT22;6472;52.328;13.070;2023-12-20T08:54:25;5.60;99.90
12815;DHT22;6472;52.328;13.070;2023-12-20T08:56:53;5.90;99.90
12815;DHT22;6472;52.328;13.070;2023-12-20T08:59:21;4.50;99.90
12815;DHT22;6472;52.328;13.070;2023-12-20T09:01:49;5.40;99.90
12815;DHT22;6472;52.328;13.070;2023-12-20T09:04:21;5.60;99.90
12815;DHT22;6472;52.328;13.070;2023-12-20T09:06:49;4.70;99.90
12815;DHT22;6472;52.328;13.070;2023-12-20T09:09:17;5.80;99.90
12815;DHT22;6472;52.328;13.070;2023-12-20T09:11:47;6.00;99.90
12815;DHT22;6472;52.328;13.070;2023-12-20T09:14:18;5.50;99.90
12815;DHT22;6472;52.328;13.070;2023-12-20T09:16:46;5.80;99.90
12815;DHT22;6472;52.328;13.070;2023-12-20T09:19:14;5.80;99.90
12815;DHT22;6472;52.328;13.070;2023-12-20T09:21:42;5.90;99.90
12815;DHT22;6472;52.328;13.070;2023-12-20T09:24:10;5.70;99.90
12815;DHT22;6472;52.328;13.070;2023-12-20T09:26:38;5.70;99.90
12815;DHT22;6472;52.328;13.070;2023-12-20T09:29:08;5.50;99.90
12815;DHT22;6472;52.328;13.070;2023-12-20T09:31:41;6.30;99.90
12815;DHT22;6472;52.328;13.070;2023-12-20T09:34:10;6.40;99.90
12815;DHT22;6472;52.328;13.070;2023-12-20T09:36:39;5.80;99.90
12815;DHT22;6472;52.328;13.070;2023-12-20T09:39:13;5.90;99.90
12815;DHT22;6472;52.328;13.070;2023-12-20T09:41:43;6.10;99.90
12815;DHT22;6472;52.328;13.070;2023-12-20T09:44:15;5.90;99.90
12815;DHT22;6472;52.328;13.070;2023-12-20T09:46:45;5.90;99.90
12815;DHT22;6472;52.328;13.070;2023-12-20T09:49:17;5.90;99.90
12815;DHT22;6472;52.328;13.070;2023-12-20T09:51:46;5.90;99.90
12815;DHT22;6472;52.328;13.070;2023-12-20T09:54:16;6.30;99.90
12815;DHT22;6472;52.328;13.070;2023-12-20T09:56:44;5.80;99.90
12815;DHT22;6472;52.328;13.070;2023-12-20T09:59:15;5.90;99.90
12815;DHT22;6472;52.328;13.070;2023-12-20T10:01:43;6.00;99.90
12815;DHT22;6472;52.328;13.070;2023-12-20T10:04:13;6.00;99.90
12815;DHT22;6472;52.328;13.070;2023-12-20T10:06:55;6.50;99.90
12815;DHT22;6472;52.328;13.070;2023-12-20T10:09:25;6.20;99.90
12815;DHT22;6472;52.328;13.070;2023-12-20T10:11:54;6.10;99.90
12815;DHT22;6472;52.328;13.070;2023-12-20T10:14:25;6.10;99.90
12815;DHT22;6472;52.328;13.070;2023-12-20T10:16:53;6.10;99.90
12815;DHT22;6472;52.328;13.070;2023-12-20T10:19:22;6.10;99.90
12815;DHT22;6472;52.328;13.070;2023-12-20T10:21:50;6.50;99.90
12815;DHT22;6472;52.328;13.070;2023-12-20T10:24:19;6.80;99.90
12815;DHT22;6472;52.328;13.070;2023-12-20T10:27:00;6.40;99.90
12815;DHT22;6472;52.328;13.070;2023-12-20T10:29:35;6.70;99.90
12815;DHT22;6472;52.328;13.070;2023-12-20T10:32:22;6.20;99.90
12815;DHT22;6472;52.328;13.070;2023-12-20T10:34:51;6.30;99.90
12815;DHT22;6472;52.328;13.070;2023-12-20T10:37:19;6.70;99.90
12815;DHT22;6472;52.328;13.070;2023-12-20T10:40:15;5.90;99.90
12815;DHT22;6472;52.328;13.070;2023-12-20T10:42:45;6.80;99.90
12815;DHT22;6472;52.328;13.070;2023-12-20T10:45:15;6.30;99.90
12815;DHT22;6472;52.328;13.070;2023-12-20T10:47:46;6.40;99.90
12815;DHT22;6472;52.328;13.070;2023-12-20T10:50:14;6.40;99.90
12815;DHT22;6472;52.328;13.070;2023-12-20T10:52:44;6.20;99.90
12815;DHT22;6472;52.328;13.070;2023-12-20T10:55:13;6.30;99.90
12815;DHT22;6472;52.328;13.070;2023-12-20T10:57:42;6.30;99.90
12815;DHT22;6472;52.328;13.070;2023-12-20T11:00:15;6.30;99.90
12815;DHT22;6472;52.328;13.070;2023-12-20T11:02:44;6.30;99.90
12815;DHT22;6472;52.328;13.070;2023-12-20T11:05:21;6.20;99.90
12815;DHT22;6472;52.328;13.070;2023-12-20T11:07:52;6.20;99.90
12815;DHT22;6472;52.328;13.070;2023-12-20T11:10:29;6.20;99.90
12815;DHT22;6472;52.328;13.070;2023-12-20T11:13:05;6.00;99.90
12815;DHT22;6472;52.328;13.070;2023-12-20T11:15:40;6.20;99.90
12815;DHT22;6472;52.328;13.070;2023-12-20T11:18:09;6.20;99.90
12815;DHT22;6472;52.328;13.070;2023-12-20T11:20:37;6.10;99.90
12815;DHT22;6472;52.328;13.070;2023-12-20T11:23:06;6.20;99.90
12815;DHT22;6472;52.328;13.070;2023-12-20T11:25:48;5.20;99.90
12815;DHT22;6472;52.328;13.070;2023-12-20T11:28:21;6.70;99.90
12815;DHT22;6472;52.328;13.070;2023-12-20T11:30:52;6.40;99.90
12815;DHT22;6472;52.328;13.070;2023-12-20T11:33:22;6.80;99.90
12815;DHT22;6472;52.328;13.070;2023-12-20T11:35:55;6.80;99.90
12815;DHT22;6472;52.328;13.070;2023-12-20T11:38:24;6.80;99.90
12815;DHT22;6472;52.328;13.070;2023-12-20T11:40:54;6.40;99.90
12815;DHT22;6472;52.328;13.070;2023-12-20T11:43:31;6.60;99.90
12815;DHT22;6472;52.328;13.070;2023-12-20T11:46:05;6.40;99.90
12815;DHT22;6472;52.328;13.070;2023-12-20T11:48:35;6.30;99.90
12815;DHT22;6472;52.328;13.070;2023-12-20T11:51:09;6.40;99.90
12815;DHT22;6472;52.328;13.070;2023-12-20T11:53:37;6.90;99.90
12815;DHT22;6472;52.328;13.070;2023-12-20T11:56:06;6.50;99.90
12815;DHT22;6472;52.328;13.070;2023-12-20T11:58:34;6.50;99.90
12815;DHT22;6472;52.328;13.070;2023-12-20T12:01:05;6.70;99.90
12815;DHT22;6472;52.328;13.070;2023-12-20T12:03:35;6.80;99.90
12815;DHT22;6472;52.328;13.070;2023-12-20T12:06:04;6.30;99.90
12815;DHT22;6472;52.328;13.070;2023-12-20T12:08:32;6.40;99.90
12815;DHT22;6472;52.328;13.070;2023-12-20T12:11:00;6.30;99.90
12815;DHT22;6472;52.328;13.070;2023-12-20T12:13:29;6.40;99.90
12815;DHT22;6472;52.328;13.070;2023-12-20T12:15:59;6.90;99.90
12815;DHT22;6472;52.328;13.070;2023-12-20T12:18:28;6.50;99.90
12815;DHT22;6472;52.328;13.070;2023-12-20T12:21:00;6.30;99.90
12815;DHT22;6472;52.328;13.070;2023-12-20T12:23:28;5.40;99.90
12815;DHT22;6472;52.328;13.070;2023-12-20T12:25:56;6.30;99.90
12815;DHT22;6472;52.328;13.070;2023-12-20T12:28:26;6.80;99.90
12815;DHT22;6472;52.328;13.070;2023-12-20T12:30:57;6.40;99.90
12815;DHT22;6472;52.328;13.070;2023-12-20T12:33:28;6.20;99.90
12815;DHT22;6472;52.328;13.070;2023-12-20T12:35:56;6.40;99.90
12815;DHT22;6472;52.328;13.070;2023-12-20T12:38:24;6.30;99.90
12815;DHT22;6472;52.328;13.070;2023-12-20T12:40:54;6.80;99.90
12815;DHT22;6472;52.328;13.070;2023-12-20T12:43:23;6.00;99.90
12815;DHT22;6472;52.328;13.070;2023-12-20T12:45:51;6.20;99.90
12815;DHT22;6472;52.328;13.070;2023-12-20T12:48:19;6.20;99.90
12815;DHT22;6472;52.328;13.070;2023-12-20T12:50:49;5.90;99.90
12815;DHT22;6472;52.328;13.070;2023-12-20T12:53:18;6.70;99.90
12815;DHT22;6472;52.328;13.070;2023-12-20T12:55:47;6.20;99.90
12815;DHT22;6472;52.328;13.070;2023-12-20T12:58:15;6.20;99.90
12815;DHT22;6472;52.328;13.070;2023-12-20T13:00:43;6.20;99.90
12815;DHT22;6472;52.328;13.070;2023-12-20T13:03:11;6.30;99.90
12815;DHT22;6472;52.328;13.070;2023-12-20T13:05:39;6.30;99.90
12815;DHT22;6472;52.328;13.070;2023-12-20T13:08:13;6.30;99.90
12815;DHT22;6472;52.328;13.070;2023-12-20T13:10:41;6.70;99.90
12815;DHT22;6472;52.328;13.070;2023-12-20T13:13:09;6.50;99.90
12815;DHT22;6472;52.328;13.070;2023-12-20T13:15:37;6.20;99.90
12815;DHT22;6472;52.328;13.070;2023-12-20T13:18:06;6.70;99.90
12815;DHT22;6472;52.328;13.070;2023-12-20T13:20:34;6.20;99.90
12815;DHT22;6472;52.328;13.070;2023-12-20T13:23:02;6.30;99.90
12815;DHT22;6472;52.328;13.070;2023-12-20T13:25:32;6.70;99.90
12815;DHT22;6472;52.328;13.070;2023-12-20T13:28:00;6.20;99.90
12815;DHT22;6472;52.328;13.070;2023-12-20T13:30:29;6.60;99.90
12815;DHT22;6472;52.328;13.070;2023-12-20T13:33:08;6.20;99.90
12815;DHT22;6472;52.328;13.070;2023-12-20T13:38:06;4.20;99.90
12815;DHT22;6472;52.328;13.070;2023-12-20T13:40:35;3.90;99.90
12815;DHT22;6472;52.328;13.070;2023-12-20T13:43:04;3.70;99.90
12815;DHT22;6472;52.328;13.070;2023-12-20T13:45:33;3.80;99.90
12815;DHT22;6472;52.328;13.070;2023-12-20T13:48:01;3.70;99.90
12815;DHT22;6472;52.328;13.070;2023-12-20T13:50:30;3.80;99.90
12815;DHT22;6472;52.328;13.070;2023-12-20T13:52:58;3.80;99.90
12815;DHT22;6472;52.328;13.070;2023-12-20T13:55:27;3.90;99.90
12815;DHT22;6472;52.328;13.070;2023-12-20T13:57:57;3.90;99.90
12815;DHT22;6472;52.328;13.070;2023-12-20T14:00:26;3.90;99.90
12815;DHT22;6472;52.328;13.070;2023-12-20T14:02:54;3.90;99.90
12815;DHT22;6472;52.328;13.070;2023-12-20T14:05:23;4.00;99.90
12815;DHT22;6472;52.328;13.070;2023-12-20T14:07:55;4.30;99.90
12815;DHT22;6472;52.328;13.070;2023-12-20T14:10:25;4.00;99.90
12815;DHT22;6472;52.328;13.070;2023-12-20T14:12:53;4.10;99.90
12815;DHT22;6472;52.328;13.070;2023-12-20T14:15:24;4.20;99.90
12815;DHT22;6472;52.328;13.070;2023-12-20T14:17:52;4.50;99.90
12815;DHT22;6472;52.328;13.070;2023-12-20T14:20:21;4.30;99.90
12815;DHT22;6472;52.328;13.070;2023-12-20T14:22:50;4.40;99.90
12815;DHT22;6472;52.328;13.070;2023-12-20T14:25:18;4.50;99.90
12815;DHT22;6472;52.328;13.070;2023-12-20T14:27:46;4.50;99.90
12815;DHT22;6472;52.328;13.070;2023-12-20T14:30:15;4.50;99.90
12815;DHT22;6472;52.328;13.070;2023-12-20T14:32:46;4.80;99.90
12815;DHT22;6472;52.328;13.070;2023-12-20T14:35:17;4.50;99.90
12815;DHT22;6472;52.328;13.070;2023-12-20T14:37:46;4.50;99.90
12815;DHT22;6472;52.328;13.070;2023-12-20T14:40:15;4.80;99.90
12815;DHT22;6472;52.328;13.070;2023-12-20T14:42:43;4.40;99.90
12815;DHT22;6472;52.328;13.070;2023-12-20T14:45:17;4.50;99.90
12815;DHT22;6472;52.328;13.070;2023-12-20T14:47:48;4.40;99.90
12815;DHT22;6472;52.328;13.070;2023-12-20T14:50:19;4.60;99.90
12815;DHT22;6472;52.328;13.070;2023-12-20T14:52:48;4.40;99.90
12815;DHT22;6472;52.328;13.070;2023-12-20T14:55:16;4.60;99.90
12815;DHT22;6472;52.328;13.070;2023-12-20T14:57:44;4.90;99.90
12815;DHT22;6472;52.328;13.070;2023-12-20T15:00:13;4.50;99.90
12815;DHT22;6472;52.328;13.070;2023-12-20T15:02:44;4.50;99.90
12815;DHT22;6472;52.328;13.070;2023-12-20T15:05:16;4.50;99.90
12815;DHT22;6472;52.328;13.070;2023-12-20T15:07:44;4.40;99.90
12815;DHT22;6472;52.328;13.070;2023-12-20T15:10:14;4.50;99.90
12815;DHT22;6472;52.328;13.070;2023-12-20T15:12:44;4.30;99.90
12815;DHT22;6472;52.328;13.070;2023-12-20T15:15:13;4.30;99.90
12815;DHT22;6472;52.328;13.070;2023-12-20T15:17:41;4.30;99.90
12815;DHT22;6472;52.328;13.070;2023-12-20T15:20:10;4.30;99.90
12815;DHT22;6472;52.328;13.070;2023-12-20T15:22:40;4.30;99.90
12815;DHT22;6472;52.328;13.070;2023-12-20T15:25:13;4.30;99.90
12815;DHT22;6472;52.328;13.070;2023-12-20T15:27:47;4.20;99.90
12815;DHT22;6472;52.328;13.070;2023-12-20T15:30:19;4.20;99.90
12815;DHT22;6472;52.328;13.070;2023-12-20T15:32:47;4.20;99.90
12815;DHT22;6472;52.328;13.070;2023-12-20T15:35:15;4.20;99.90
12815;DHT22;6472;52.328;13.070;2023-12-20T15:37:45;4.20;99.90
12815;DHT22;6472;52.328;13.070;2023-12-20T15:40:13;4.20;99.90
12815;DHT22;6472;52.328;13.070;2023-12-20T15:42:41;4.30;99.90
12815;DHT22;6472;52.328;13.070;2023-12-20T15:45:10;4.20;99.90
12815;DHT22;6472;52.328;13.070;2023-12-20T15:47:38;4.30;99.90
12815;DHT22;6472;52.328;13.070;2023-12-20T15:50:06;4.10;99.90
12815;DHT22;6472;52.328;13.070;2023-12-20T15:52:35;4.10;99.90
12815;DHT22;6472;52.328;13.070;2023-12-20T15:55:07;4.10;99.90
12815;DHT22;6472;52.328;13.070;2023-12-20T15:57:35;4.10;99.90
12815;DHT22;6472;52.328;13.070;2023-12-20T16:00:18;4.20;99.90